[x] [x]
.:Aeroklub Partizánske:. |  .:Fotogaléria:. |  .:Videogaléria:. |  .:Foto týždňa:. |  .:Kniha návštev:. |  .:Linky:. |  .:Moje konto:.
 MENU [x]

 METEO [x]

 FotoGaléria [x]

 Slnko [x]
LZPT Partizánske
48°37'N 18°20'E
Východ: 4:55 AM
Západ: 8:33 PM
LZIB Bratislava
48°10'N 17°12'E
Východ: 5:01 AM
Západ: 8:36 PM
LZKZ Košice
48°39'N 21°14'E
Východ: 4:43 AM
Západ: 8:21 PM

 Jazyky [x]
Vyberte jazyk rozhrania:

Slovak English German Polish


  SPRÁVY METAR - ČESKÁ REPUBLIKA
Brno-TuřanyLKTB 250300Z 34007KT 8000 FEW012 16/13 Q1009 NOSIGdekóduj
ČáslavLKCV 250300Z 30009KT 9999 OVC010 13/12 Q1012 NOSIG RMK GRN GRNdekóduj
HolešovLKHO 010800Z VRB03KT CAVOK 23/17 Q1019dekóduj
Hradec Královedekóduj
Karlovy VaryLKKV 250300Z 27005KT 9999 SCT006 BKN023 10/08 Q1013dekóduj
KunoviceLKKU 241400Z 19004KT 130V230 9999 BKN011 17/13 Q1006dekóduj
LiberecLKLB 020602Z 16003KT 9999 FEW016 BKN043 M01/M02 Q1016dekóduj
Mariánsky Láznědekóduj
Náměšť nad OslavouLKNA 250300Z 33009KT 6000 SCT005 OVC007 13/13 Q1010 RMK GRNdekóduj
Ostrava-MošnovLKMT 250300Z VRB02KT 4000 BR SCT012 11/10 Q1009 NOSIGdekóduj
PardubiceLKPD 250300Z 27009KT 5000 BR OVC008 13/11 Q1011 RMK GRNdekóduj
Praha-KbelyLKKB 250300Z 28005KT 5000 BR SCT009 OVC011 11/11 Q1012dekóduj
Praha-RuzyněLKPR 250300Z 27004KT 6000 SCT014 09/09 Q1012 NOSIGdekóduj
PřerovLKPO 010000Z 05005KT CAVOK 04/01 Q1013dekóduj
 FreeFly INFO [x]
COROWA 2009


COROWA 2009


COROWA 2009



 LZPT webcam [x]

 Foto týždňa [x]

 KBO SNA [x]

 Login [x]
Užívateľské meno

Heslo


Ešte nemáš konto? Môžeš si ho vytvoriť. Registrovaný užívateľ má množstvo výhod, napr. posielanie okamžitých správ iným užívateľom, posielanie komentárov s vlastným menom, možnosť pridávať fotografie do galérie...

 Kto je online [x]
Momentálne je online 130 hostí a 0 členov.

Ste anonymný užívateľ. Zaregistrovať sa môžete tu

DETAILY

 Linky [x]

 Počítadlo návštev [x]
Zaznamenali sme
39630408
strán zobrazených od júna 2003

Počet dnešných unikátnych IP adries:
0



www.freefly.sk
Powered by SzMsoft ©2003-2005. Polish translations by Cezary Dąbek. Flying server www.freefly.sk is administrated by maro@freefly.sk - www.artweb.freefly.sk
PHP-Nuke Copyright © 2004 by Francisco Burzi. This is free software, and you may redistribute it under the GPL. PHP-Nuke comes with absolutely no warranty, for details, see the license.